createdAt,value
2022-07-28T00:00:38.151Z,59.50
2022-07-28T00:03:24.125Z,60.10
2022-07-28T00:06:09.794Z,61.30
2022-07-28T00:08:55.673Z,62.50
2022-07-28T00:11:54.053Z,64.30
2022-07-28T00:14:40.685Z,63.80
2022-07-28T00:17:26.338Z,62.70
2022-07-28T00:20:12.164Z,63.20
2022-07-28T00:22:57.700Z,64.00
2022-07-28T00:25:43.379Z,65.20
2022-07-28T00:28:28.856Z,65.60
2022-07-28T00:31:14.495Z,66.20
2022-07-28T00:34:00.460Z,66.40
2022-07-28T00:36:46.028Z,66.30
2022-07-28T00:39:31.930Z,66.00
2022-07-28T00:42:19.016Z,66.60
2022-07-28T00:45:05.358Z,67.40
2022-07-28T00:47:50.860Z,67.90
2022-07-28T00:50:39.154Z,67.20
2022-07-28T00:53:24.787Z,67.70
2022-07-28T00:56:10.440Z,68.40
2022-07-28T00:58:55.890Z,69.20
2022-07-28T01:01:41.519Z,70.00
2022-07-28T01:04:27.700Z,70.10
2022-07-28T01:07:29.972Z,70.10
2022-07-28T01:10:50.228Z,70.40
2022-07-28T01:13:54.356Z,71.00
2022-07-28T01:17:08.226Z,70.20
2022-07-28T01:19:57.019Z,70.60
2022-07-28T01:23:10.468Z,71.40
2022-07-28T01:26:34.005Z,72.70
2022-07-28T01:29:29.123Z,71.90
2022-07-28T01:32:22.117Z,73.10
2022-07-28T01:35:18.142Z,72.80
2022-07-28T01:38:07.443Z,73.50
2022-07-28T01:40:55.487Z,73.20
2022-07-28T01:43:52.006Z,73.20
2022-07-28T01:46:38.510Z,72.90
2022-07-28T01:49:26.667Z,73.90
2022-07-28T01:52:13.713Z,74.60
2022-07-28T01:55:01.953Z,75.20
2022-07-28T01:57:49.073Z,74.60
2022-07-28T02:00:36.217Z,75.50
2022-07-28T02:03:23.912Z,76.40
2022-07-28T02:06:12.230Z,76.90
2022-07-28T02:08:58.852Z,76.60
2022-07-28T02:11:47.770Z,76.50
2022-07-28T02:14:36.388Z,76.60
2022-07-28T02:17:27.334Z,76.90
2022-07-28T02:20:14.576Z,77.70
2022-07-28T02:23:00.664Z,77.80
2022-07-28T02:25:46.899Z,77.40
2022-07-28T02:28:32.904Z,78.20
2022-07-28T02:31:42.080Z,78.60
2022-07-28T02:34:28.895Z,78.40
2022-07-28T02:37:16.031Z,78.00
2022-07-28T02:40:02.998Z,78.60
2022-07-28T02:42:50.779Z,79.20
2022-07-28T02:45:42.933Z,79.90
2022-07-28T02:48:33.260Z,79.90
2022-07-28T02:51:23.511Z,80.50
2022-07-28T02:54:12.391Z,81.00
2022-07-28T02:57:00.392Z,81.10
2022-07-28T02:59:47.461Z,81.30
2022-07-28T03:02:36.671Z,81.70
2022-07-28T03:05:23.170Z,81.40
2022-07-28T03:08:09.241Z,81.40
2022-07-28T03:11:09.393Z,82.10
2022-07-28T03:13:54.866Z,82.10
2022-07-28T03:16:40.831Z,82.30
2022-07-28T03:19:26.280Z,82.10
2022-07-28T03:22:12.055Z,83.10
2022-07-28T03:24:58.649Z,83.30
2022-07-28T03:27:48.293Z,82.80
2022-07-28T03:30:40.569Z,83.80
2022-07-28T03:33:27.510Z,83.40
2022-07-28T03:36:18.992Z,83.40
2022-07-28T03:39:08.741Z,83.40
2022-07-28T03:41:55.950Z,84.40
2022-07-28T03:44:42.515Z,84.10
2022-07-28T03:47:28.383Z,84.70
2022-07-28T03:50:14.380Z,85.60
2022-07-28T03:53:03.020Z,85.90
2022-07-28T03:55:50.964Z,86.90
2022-07-28T03:58:37.068Z,87.00
2022-07-28T04:01:23.244Z,87.10
2022-07-28T04:04:08.940Z,87.10
2022-07-28T04:06:54.667Z,87.00
2022-07-28T04:09:40.220Z,87.10
2022-07-28T04:12:25.777Z,87.80
2022-07-28T04:15:15.109Z,88.60
2022-07-28T04:18:00.545Z,88.30
2022-07-28T04:20:46.507Z,88.10
2022-07-28T04:23:33.079Z,88.10
2022-07-28T04:26:18.720Z,88.30
2022-07-28T04:29:04.356Z,88.60
2022-07-28T04:31:50.245Z,89.80
2022-07-28T04:34:35.823Z,89.10
2022-07-28T04:37:21.503Z,88.50
2022-07-28T04:40:09.451Z,88.20
2022-07-28T04:42:55.587Z,88.20
2022-07-28T04:45:46.074Z,87.90
2022-07-28T04:48:39.534Z,88.50
2022-07-28T04:51:25.143Z,87.80
2022-07-28T04:54:10.891Z,87.40
2022-07-28T04:56:56.465Z,87.90
2022-07-28T04:59:43.103Z,88.70
2022-07-28T05:02:28.741Z,87.00
2022-07-28T05:05:14.468Z,87.60
2022-07-28T05:07:59.792Z,88.30
2022-07-28T05:10:45.352Z,87.50
2022-07-28T05:13:34.025Z,87.10
2022-07-28T05:16:20.567Z,87.50
2022-07-28T05:19:06.082Z,86.60
2022-07-28T05:21:51.761Z,86.20
2022-07-28T05:24:37.145Z,86.00
2022-07-28T05:27:22.788Z,85.60
2022-07-28T05:30:09.178Z,84.90
2022-07-28T05:32:59.125Z,84.90
2022-07-28T05:35:52.387Z,84.30
2022-07-28T05:38:38.103Z,81.40
2022-07-28T05:41:23.861Z,81.70
2022-07-28T05:44:09.295Z,81.20
2022-07-28T05:46:54.959Z,80.30
2022-07-28T05:49:40.558Z,80.70
2022-07-28T05:52:27.534Z,79.10
2022-07-28T05:55:13.853Z,79.10
2022-07-28T05:58:00.364Z,78.90
2022-07-28T06:00:46.212Z,79.30
2022-07-28T06:03:39.769Z,78.70
2022-07-28T06:06:28.019Z,77.30
2022-07-28T06:09:13.587Z,76.50
2022-07-28T06:11:58.953Z,76.50
2022-07-28T06:14:45.347Z,75.00
2022-07-28T06:17:30.755Z,75.30
2022-07-28T06:20:16.902Z,75.20
2022-07-28T06:23:02.624Z,74.90
2022-07-28T06:25:49.116Z,74.40
2022-07-28T06:28:34.762Z,74.10
2022-07-28T06:31:20.725Z,72.60
2022-07-28T06:34:06.300Z,73.20
2022-07-28T06:36:52.738Z,72.60
2022-07-28T06:39:38.469Z,73.20
2022-07-28T06:42:24.192Z,71.60
2022-07-28T06:45:20.690Z,72.60
2022-07-28T06:48:08.105Z,72.10
2022-07-28T06:50:54.002Z,71.80
2022-07-28T06:53:39.539Z,70.40
2022-07-28T06:56:26.241Z,69.20
2022-07-28T06:59:15.720Z,69.50
2022-07-28T07:02:02.328Z,70.30
2022-07-28T07:04:47.926Z,69.00
2022-07-28T07:07:33.567Z,70.00
2022-07-28T07:10:18.995Z,69.20
2022-07-28T07:13:04.797Z,69.20
2022-07-28T07:15:50.984Z,69.60
2022-07-28T07:18:36.705Z,69.10
2022-07-28T07:21:22.384Z,69.80
2022-07-28T07:24:11.702Z,69.90
2022-07-28T07:26:57.858Z,68.50
2022-07-28T07:29:43.340Z,67.70
2022-07-28T07:32:28.736Z,68.50
2022-07-28T07:35:14.416Z,67.80
2022-07-28T07:38:00.199Z,67.20
2022-07-28T07:40:45.707Z,67.20
2022-07-28T07:43:31.361Z,66.40
2022-07-28T07:46:17.800Z,65.60
2022-07-28T07:49:03.849Z,66.00
2022-07-28T07:51:49.737Z,64.90
2022-07-28T07:54:35.288Z,66.00
2022-07-28T07:57:21.089Z,66.20
2022-07-28T08:00:07.483Z,64.80
2022-07-28T08:02:53.161Z,66.00
2022-07-28T08:05:39.452Z,64.80
2022-07-28T08:08:25.150Z,63.80
2022-07-28T08:11:12.304Z,64.40
2022-07-28T08:13:57.953Z,63.50
2022-07-28T08:16:43.464Z,63.50
2022-07-28T08:19:29.073Z,62.40
2022-07-28T08:22:15.786Z,61.40
2022-07-28T08:25:01.409Z,61.70
2022-07-28T08:27:46.995Z,61.60
2022-07-28T08:30:33.125Z,61.80
2022-07-28T08:33:21.742Z,62.20
2022-07-28T08:36:07.558Z,60.40
2022-07-28T08:38:53.584Z,60.00
2022-07-28T08:42:18.112Z,60.30
2022-07-28T08:45:07.759Z,59.60
2022-07-28T08:48:08.327Z,58.80
2022-07-28T08:50:58.985Z,59.00
2022-07-28T08:53:45.259Z,59.80
2022-07-28T08:56:32.245Z,59.30
2022-07-28T08:59:18.262Z,57.50
2022-07-28T09:02:04.276Z,57.30
2022-07-28T09:04:50.908Z,56.50
2022-07-28T09:07:41.427Z,56.10
2022-07-28T09:10:28.113Z,56.50
2022-07-28T09:13:14.889Z,56.80
2022-07-28T09:16:00.914Z,56.00
2022-07-28T09:18:46.739Z,56.40
2022-07-28T09:21:32.697Z,55.90
2022-07-28T09:24:39.350Z,56.40
2022-07-28T09:27:25.105Z,55.90
2022-07-28T09:30:11.016Z,56.20
2022-07-28T09:33:41.758Z,55.00
2022-07-28T09:36:23.579Z,54.80
2022-07-28T09:39:09.643Z,55.20
2022-07-28T09:41:55.920Z,53.40
2022-07-28T09:44:47.382Z,53.70
2022-07-28T09:47:46.224Z,53.70
2022-07-28T09:50:31.864Z,53.50
2022-07-28T09:53:27.463Z,53.10
2022-07-28T09:56:14.225Z,53.20
2022-07-28T09:59:00.538Z,54.00
2022-07-28T10:01:53.612Z,53.00
2022-07-28T10:04:42.621Z,52.70
2022-07-28T10:07:30.144Z,52.50
2022-07-28T10:10:21.003Z,52.90
2022-07-28T10:13:06.641Z,50.60
2022-07-28T10:16:12.280Z,51.70
2022-07-28T10:19:00.186Z,51.60
2022-07-28T10:21:46.965Z,51.10
2022-07-28T10:24:37.977Z,51.20
2022-07-28T10:27:25.750Z,49.90
2022-07-28T10:30:12.916Z,49.40
2022-07-28T10:32:59.785Z,49.50
2022-07-28T10:35:54.359Z,49.40
2022-07-28T10:38:41.656Z,52.10
2022-07-28T10:41:34.153Z,49.50
2022-07-28T10:44:20.583Z,51.60
2022-07-28T10:47:18.584Z,49.60
2022-07-28T10:50:06.225Z,50.10
2022-07-28T10:52:57.448Z,49.70
2022-07-28T10:55:52.448Z,48.60
2022-07-28T10:58:47.925Z,48.50
2022-07-28T11:01:51.306Z,48.00
2022-07-28T11:04:48.800Z,48.80
2022-07-28T11:07:39.638Z,48.40
2022-07-28T11:10:25.621Z,47.70
2022-07-28T11:13:23.417Z,47.00
2022-07-28T11:16:14.854Z,46.90
2022-07-28T11:19:36.862Z,46.90
2022-07-28T11:22:18.881Z,47.50
2022-07-28T11:25:18.068Z,46.30
2022-07-28T11:28:07.074Z,45.60
2022-07-28T11:30:53.735Z,46.80
2022-07-28T11:33:56.489Z,45.50
2022-07-28T11:37:02.893Z,45.30
2022-07-28T11:39:48.293Z,45.40
2022-07-28T11:42:34.165Z,45.60
2022-07-28T11:45:35.908Z,45.10
2022-07-28T11:48:26.207Z,45.30
2022-07-28T11:51:13.807Z,45.10
2022-07-28T11:53:59.603Z,46.40
2022-07-28T11:56:45.474Z,45.60
2022-07-28T11:59:49.657Z,45.20
2022-07-28T12:02:35.950Z,44.00
2022-07-28T12:05:22.558Z,45.70
2022-07-28T12:08:11.048Z,43.00
2022-07-28T12:10:56.863Z,44.50
2022-07-28T12:13:43.126Z,44.60
2022-07-28T12:16:30.213Z,43.40
2022-07-28T12:19:23.302Z,42.80
2022-07-28T12:22:19.478Z,42.60
2022-07-28T12:25:06.581Z,41.30
2022-07-28T12:28:13.715Z,42.60
2022-07-28T12:31:13.266Z,41.70
2022-07-28T12:34:06.108Z,41.60
2022-07-28T12:36:52.352Z,41.60
2022-07-28T12:39:43.256Z,42.70
2022-07-28T12:42:32.290Z,43.30
2022-07-28T12:45:17.778Z,43.30
2022-07-28T12:48:08.177Z,41.70
2022-07-28T12:50:53.941Z,41.30
2022-07-28T12:53:51.613Z,41.60
2022-07-28T12:56:53.322Z,41.60
2022-07-28T12:59:39.752Z,41.30
2022-07-28T13:02:38.046Z,42.30
2022-07-28T13:05:56.516Z,43.30
2022-07-28T13:08:45.067Z,41.50
2022-07-28T13:11:47.963Z,41.10
2022-07-28T13:14:44.985Z,42.50
2022-07-28T13:17:49.577Z,41.60
2022-07-28T13:20:52.249Z,41.70
2022-07-28T13:23:38.402Z,40.90
2022-07-28T13:26:24.186Z,41.90
2022-07-28T13:29:12.882Z,41.10
2022-07-28T13:31:58.640Z,41.30
2022-07-28T13:34:44.945Z,42.60
2022-07-28T13:37:30.740Z,41.70
2022-07-28T13:40:16.254Z,41.80
2022-07-28T13:43:01.763Z,40.40
2022-07-28T13:45:48.302Z,41.80
2022-07-28T13:48:35.909Z,40.40
2022-07-28T13:51:21.913Z,41.50
2022-07-28T13:54:07.953Z,41.60
2022-07-28T13:56:53.846Z,42.30
2022-07-28T13:59:39.632Z,41.60
2022-07-28T14:02:26.003Z,41.50
2022-07-28T14:05:12.915Z,40.90
2022-07-28T14:07:58.680Z,41.50
2022-07-28T14:10:48.369Z,41.50
2022-07-28T14:13:38.188Z,41.80
2022-07-28T14:16:24.711Z,42.10
2022-07-28T14:19:13.682Z,41.30
2022-07-28T14:22:02.722Z,42.70
2022-07-28T14:24:48.406Z,42.80
2022-07-28T14:27:34.329Z,42.80
2022-07-28T14:30:28.351Z,43.00
2022-07-28T14:33:14.266Z,42.10
2022-07-28T14:35:59.889Z,40.50
2022-07-28T14:38:54.723Z,42.50
2022-07-28T14:41:42.592Z,40.40
2022-07-28T14:44:28.039Z,42.60
2022-07-28T14:47:13.572Z,42.10
2022-07-28T14:49:58.998Z,42.00
2022-07-28T14:52:44.973Z,40.50
2022-07-28T14:55:31.837Z,41.00
2022-07-28T14:58:17.579Z,41.60
2022-07-28T15:01:03.120Z,41.40
2022-07-28T15:03:48.574Z,41.80
2022-07-28T15:06:34.020Z,41.60
2022-07-28T15:09:19.984Z,42.00
2022-07-28T15:12:06.153Z,42.60
2022-07-28T15:14:51.933Z,42.40
2022-07-28T15:17:37.642Z,43.50
2022-07-28T15:20:23.630Z,42.80
2022-07-28T15:23:10.930Z,43.00
2022-07-28T15:25:56.637Z,42.80
2022-07-28T15:28:42.075Z,41.80
2022-07-28T15:31:30.277Z,43.00
2022-07-28T15:34:16.416Z,43.50
2022-07-28T15:37:02.541Z,43.30
2022-07-28T15:39:48.063Z,43.90
2022-07-28T15:42:33.456Z,43.20
2022-07-28T15:45:19.180Z,43.40
2022-07-28T15:48:06.989Z,43.70
2022-07-28T15:50:52.826Z,44.60
2022-07-28T15:53:38.818Z,44.00
2022-07-28T15:56:24.763Z,44.60
2022-07-28T15:59:10.427Z,43.80
2022-07-28T16:01:56.096Z,44.50
2022-07-28T16:04:51.037Z,44.80
2022-07-28T16:07:44.706Z,44.30
2022-07-28T16:10:30.817Z,44.70
2022-07-28T16:13:22.704Z,44.60
2022-07-28T16:16:21.987Z,45.80
2022-07-28T16:19:20.104Z,46.20
2022-07-28T16:22:14.429Z,46.30
2022-07-28T16:24:59.966Z,46.40
2022-07-28T16:27:46.793Z,46.30
2022-07-28T16:30:35.838Z,47.10
2022-07-28T16:33:21.503Z,46.60
2022-07-28T16:36:07.038Z,47.00
2022-07-28T16:38:52.760Z,47.50
2022-07-28T16:41:47.772Z,48.20
2022-07-28T16:44:37.680Z,48.00
2022-07-28T16:47:23.350Z,47.60
2022-07-28T16:50:09.635Z,47.60
2022-07-28T16:52:55.733Z,48.30
2022-07-28T16:55:42.235Z,48.70
2022-07-28T16:58:28.955Z,49.20
2022-07-28T17:01:15.528Z,48.80
2022-07-28T17:04:03.040Z,48.70
2022-07-28T17:06:48.534Z,48.60
2022-07-28T17:09:33.998Z,49.20
2022-07-28T17:12:19.571Z,49.10
2022-07-28T17:15:06.421Z,48.90
2022-07-28T17:18:05.929Z,49.20
2022-07-28T17:20:51.781Z,49.50
2022-07-28T17:23:37.404Z,49.80
2022-07-28T17:27:32.167Z,49.70
2022-07-28T17:29:28.672Z,49.70
2022-07-28T17:32:14.291Z,49.90
2022-07-28T17:34:59.817Z,50.20
2022-07-28T17:37:45.412Z,51.00
2022-07-28T17:40:32.007Z,51.20
2022-07-28T17:43:19.393Z,50.90
2022-07-28T17:46:10.504Z,50.50
2022-07-28T17:48:57.352Z,50.50
2022-07-28T17:51:45.014Z,50.70
2022-07-28T17:54:50.465Z,50.90
2022-07-28T17:57:37.892Z,51.60
2022-07-28T18:00:25.933Z,52.10
2022-07-28T18:03:12.134Z,51.30
2022-07-28T18:05:58.743Z,52.60
2022-07-28T18:08:45.306Z,51.40
2022-07-28T18:11:31.161Z,52.70
2022-07-28T18:14:17.777Z,54.60
2022-07-28T18:17:03.752Z,55.10
2022-07-28T18:19:49.154Z,54.30
2022-07-28T18:22:34.889Z,55.40
2022-07-28T18:25:20.450Z,53.70
2022-07-28T18:28:07.502Z,53.30
2022-07-28T18:30:53.173Z,54.50
2022-07-28T18:33:40.384Z,54.50
2022-07-28T18:36:25.971Z,54.70
2022-07-28T18:39:12.351Z,55.20
2022-07-28T18:41:58.088Z,55.20
2022-07-28T18:44:43.826Z,55.20
2022-07-28T18:47:29.482Z,55.20
2022-07-28T18:50:30.901Z,55.30
2022-07-28T18:53:17.360Z,55.60
2022-07-28T18:56:02.733Z,56.00
2022-07-28T18:58:51.841Z,56.50
2022-07-28T19:01:37.614Z,56.90
2022-07-28T19:04:23.170Z,57.60
2022-07-28T19:07:08.818Z,58.00
2022-07-28T19:09:54.822Z,58.50
2022-07-28T19:12:40.230Z,59.20
2022-07-28T19:15:26.175Z,59.20
2022-07-28T19:18:12.276Z,61.10
2022-07-28T19:20:58.027Z,61.90
2022-07-28T19:23:43.728Z,62.90
2022-07-28T19:26:31.744Z,63.30
2022-07-28T19:29:17.644Z,62.70
2022-07-28T19:32:04.541Z,62.60
2022-07-28T19:34:53.103Z,63.80
2022-07-28T19:37:39.546Z,64.90
2022-07-28T19:40:25.612Z,66.30
2022-07-28T19:43:11.495Z,67.50
2022-07-28T19:46:00.057Z,68.50
2022-07-28T19:48:45.864Z,70.00
2022-07-28T19:51:31.342Z,69.50
2022-07-28T19:54:20.948Z,69.30
2022-07-28T19:57:12.345Z,69.20
2022-07-28T20:00:02.098Z,69.60
2022-07-28T20:02:57.506Z,70.10
2022-07-28T20:05:43.557Z,70.70
2022-07-28T20:08:29.660Z,70.70
2022-07-28T20:11:15.204Z,70.80
2022-07-28T20:14:01.583Z,70.80
2022-07-28T20:16:47.132Z,70.60
2022-07-28T20:19:38.886Z,70.70
2022-07-28T20:22:25.158Z,70.80
2022-07-28T20:25:11.947Z,72.20
2022-07-28T20:27:57.534Z,72.20
2022-07-28T20:30:43.128Z,74.20
2022-07-28T20:33:29.918Z,73.80
2022-07-28T20:36:15.311Z,73.90
2022-07-28T20:39:00.973Z,75.00
2022-07-28T20:41:48.660Z,74.90
2022-07-28T20:44:34.733Z,74.40
2022-07-28T20:47:22.889Z,75.50
2022-07-28T20:50:08.590Z,75.80
2022-07-28T20:52:54.022Z,76.10
2022-07-28T20:55:39.736Z,76.50
2022-07-28T20:58:25.311Z,77.10
2022-07-28T21:01:13.729Z,78.00
2022-07-28T21:03:59.313Z,78.40
2022-07-28T21:06:51.038Z,77.70
2022-07-28T21:09:38.204Z,77.40
2022-07-28T21:12:23.881Z,77.50
2022-07-28T21:15:09.902Z,77.70
2022-07-28T21:17:56.958Z,77.90
2022-07-28T21:20:42.399Z,78.20
2022-07-28T21:23:27.995Z,79.00
2022-07-28T21:26:13.742Z,80.90
2022-07-28T21:29:12.458Z,82.40
2022-07-28T21:32:04.857Z,83.40
2022-07-28T21:34:51.287Z,83.80
2022-07-28T21:37:36.722Z,83.20
2022-07-28T21:40:22.360Z,82.80
2022-07-28T21:43:08.433Z,83.00
2022-07-28T21:45:54.711Z,80.90
2022-07-28T21:48:40.298Z,80.50
2022-07-28T21:51:27.481Z,80.00
2022-07-28T21:54:13.833Z,79.80
2022-07-28T21:56:59.874Z,80.30
2022-07-28T21:59:45.494Z,81.30
2022-07-28T22:02:34.140Z,82.50
2022-07-28T22:05:19.966Z,83.20
2022-07-28T22:08:05.938Z,84.10
2022-07-28T22:10:52.126Z,83.90
2022-07-28T22:13:37.832Z,83.30
2022-07-28T22:16:25.472Z,82.40
2022-07-28T22:19:12.157Z,81.60
2022-07-28T22:21:58.914Z,81.60
2022-07-28T22:24:45.560Z,81.30
2022-07-28T22:27:30.977Z,80.70
2022-07-28T22:30:16.486Z,80.80
2022-07-28T22:33:02.475Z,80.70
2022-07-28T22:35:48.200Z,81.10
2022-07-28T22:38:34.003Z,81.80
2022-07-28T22:41:19.673Z,81.50
2022-07-28T22:44:05.344Z,81.10
2022-07-28T22:46:51.131Z,82.30
2022-07-28T22:49:36.970Z,83.20
2022-07-28T22:52:26.625Z,83.20
2022-07-28T22:55:12.075Z,82.50
2022-07-28T22:58:00.682Z,82.60
2022-07-28T23:00:49.244Z,82.00
2022-07-28T23:03:37.331Z,82.50
2022-07-28T23:06:23.914Z,82.90
2022-07-28T23:09:09.460Z,83.40
2022-07-28T23:11:55.968Z,82.90
2022-07-28T23:14:41.867Z,82.70
2022-07-28T23:17:27.264Z,82.90
2022-07-28T23:20:12.898Z,82.90
2022-07-28T23:22:58.304Z,83.10
2022-07-28T23:25:44.792Z,85.60
2022-07-28T23:28:31.055Z,84.90
2022-07-28T23:31:16.684Z,84.20
2022-07-28T23:34:02.305Z,83.90
2022-07-28T23:36:48.042Z,84.80
2022-07-28T23:39:33.478Z,84.20
2022-07-28T23:42:18.953Z,85.00
2022-07-28T23:45:04.784Z,85.20
2022-07-28T23:47:52.908Z,86.20
2022-07-28T23:50:42.048Z,86.40
2022-07-28T23:53:27.913Z,86.70
2022-07-28T23:56:14.742Z,87.00
2022-07-28T23:59:00.760Z,86.90
